sensor_id;sensor_type;location;lat;lon;timestamp;P1;durP1;ratioP1;P2;durP2;ratioP2
55758;SDS011;41678;52.126;20.664;2024-02-21T00:01:26;13.35;;;4.30;;
55758;SDS011;41678;52.126;20.664;2024-02-21T00:06:45;14.45;;;3.35;;
55758;SDS011;41678;52.126;20.664;2024-02-21T00:12:05;13.02;;;3.45;;
55758;SDS011;41678;52.126;20.664;2024-02-21T00:17:25;11.52;;;3.15;;
55758;SDS011;41678;52.126;20.664;2024-02-21T00:22:45;22.08;;;3.50;;
55758;SDS011;41678;52.126;20.664;2024-02-21T00:28:05;14.27;;;3.30;;
55758;SDS011;41678;52.126;20.664;2024-02-21T00:33:25;17.25;;;3.75;;
55758;SDS011;41678;52.126;20.664;2024-02-21T00:38:45;19.02;;;4.40;;
55758;SDS011;41678;52.126;20.664;2024-02-21T00:44:04;10.55;;;3.17;;
55758;SDS011;41678;52.126;20.664;2024-02-21T00:49:25;12.07;;;2.85;;
55758;SDS011;41678;52.126;20.664;2024-02-21T00:54:44;12.90;;;3.20;;
55758;SDS011;41678;52.126;20.664;2024-02-21T01:00:04;15.70;;;3.33;;
55758;SDS011;41678;52.126;20.664;2024-02-21T01:05:24;19.48;;;3.67;;
55758;SDS011;41678;52.126;20.664;2024-02-21T01:10:43;15.73;;;3.42;;
55758;SDS011;41678;52.126;20.664;2024-02-21T01:16:03;7.78;;;2.58;;
55758;SDS011;41678;52.126;20.664;2024-02-21T01:21:22;10.80;;;2.85;;
55758;SDS011;41678;52.126;20.664;2024-02-21T01:26:42;9.77;;;2.78;;
55758;SDS011;41678;52.126;20.664;2024-02-21T01:32:01;10.07;;;2.85;;
55758;SDS011;41678;52.126;20.664;2024-02-21T01:37:20;9.82;;;3.35;;
55758;SDS011;41678;52.126;20.664;2024-02-21T01:42:40;12.23;;;3.10;;
55758;SDS011;41678;52.126;20.664;2024-02-21T01:48:00;9.10;;;2.50;;
55758;SDS011;41678;52.126;20.664;2024-02-21T01:53:23;11.73;;;3.28;;
55758;SDS011;41678;52.126;20.664;2024-02-21T01:58:44;11.25;;;3.65;;
55758;SDS011;41678;52.126;20.664;2024-02-21T02:04:05;6.60;;;2.15;;
55758;SDS011;41678;52.126;20.664;2024-02-21T02:09:25;19.33;;;4.32;;
55758;SDS011;41678;52.126;20.664;2024-02-21T02:14:45;12.07;;;4.25;;
55758;SDS011;41678;52.126;20.664;2024-02-21T02:20:04;9.23;;;3.42;;
55758;SDS011;41678;52.126;20.664;2024-02-21T02:25:24;16.67;;;3.17;;
55758;SDS011;41678;52.126;20.664;2024-02-21T02:30:44;15.75;;;3.90;;
55758;SDS011;41678;52.126;20.664;2024-02-21T02:36:03;15.07;;;4.22;;
55758;SDS011;41678;52.126;20.664;2024-02-21T02:41:23;15.38;;;3.47;;
55758;SDS011;41678;52.126;20.664;2024-02-21T02:46:42;16.17;;;4.00;;
55758;SDS011;41678;52.126;20.664;2024-02-21T02:52:01;14.57;;;4.78;;
55758;SDS011;41678;52.126;20.664;2024-02-21T02:57:21;20.55;;;4.20;;
55758;SDS011;41678;52.126;20.664;2024-02-21T03:02:41;21.00;;;4.75;;
55758;SDS011;41678;52.126;20.664;2024-02-21T03:08:01;11.40;;;4.72;;
55758;SDS011;41678;52.126;20.664;2024-02-21T03:13:20;10.98;;;3.92;;
55758;SDS011;41678;52.126;20.664;2024-02-21T03:18:39;17.70;;;4.72;;
55758;SDS011;41678;52.126;20.664;2024-02-21T03:23:59;15.57;;;5.18;;
55758;SDS011;41678;52.126;20.664;2024-02-21T03:29:18;16.27;;;4.90;;
55758;SDS011;41678;52.126;20.664;2024-02-21T03:34:38;20.42;;;5.50;;
55758;SDS011;41678;52.126;20.664;2024-02-21T03:39:57;27.10;;;4.68;;
55758;SDS011;41678;52.126;20.664;2024-02-21T03:45:17;18.13;;;4.68;;
55758;SDS011;41678;52.126;20.664;2024-02-21T03:50:36;16.42;;;5.43;;
55758;SDS011;41678;52.126;20.664;2024-02-21T03:55:56;9.80;;;4.53;;
55758;SDS011;41678;52.126;20.664;2024-02-21T04:01:15;17.08;;;4.63;;
55758;SDS011;41678;52.126;20.664;2024-02-21T04:06:35;15.05;;;4.80;;
55758;SDS011;41678;52.126;20.664;2024-02-21T04:11:56;20.92;;;5.70;;
55758;SDS011;41678;52.126;20.664;2024-02-21T04:17:16;15.77;;;6.18;;
55758;SDS011;41678;52.126;20.664;2024-02-21T04:22:36;16.10;;;5.65;;
55758;SDS011;41678;52.126;20.664;2024-02-21T04:27:55;19.40;;;5.75;;
55758;SDS011;41678;52.126;20.664;2024-02-21T04:33:15;22.75;;;6.75;;
55758;SDS011;41678;52.126;20.664;2024-02-21T04:38:34;22.80;;;7.55;;
55758;SDS011;41678;52.126;20.664;2024-02-21T04:43:54;39.50;;;11.43;;
55758;SDS011;41678;52.126;20.664;2024-02-21T04:49:13;36.35;;;16.40;;
55758;SDS011;41678;52.126;20.664;2024-02-21T04:54:33;33.20;;;12.50;;
55758;SDS011;41678;52.126;20.664;2024-02-21T04:59:54;22.63;;;8.60;;
55758;SDS011;41678;52.126;20.664;2024-02-21T05:05:13;36.78;;;11.25;;
55758;SDS011;41678;52.126;20.664;2024-02-21T05:10:34;24.20;;;8.80;;
55758;SDS011;41678;52.126;20.664;2024-02-21T05:15:54;24.10;;;7.15;;
55758;SDS011;41678;52.126;20.664;2024-02-21T05:21:13;17.88;;;7.95;;
55758;SDS011;41678;52.126;20.664;2024-02-21T05:26:33;22.65;;;7.80;;
55758;SDS011;41678;52.126;20.664;2024-02-21T05:37:12;32.50;;;11.48;;
55758;SDS011;41678;52.126;20.664;2024-02-21T05:42:31;47.30;;;16.17;;
55758;SDS011;41678;52.126;20.664;2024-02-21T05:47:51;38.22;;;12.70;;
55758;SDS011;41678;52.126;20.664;2024-02-21T05:53:11;26.30;;;9.32;;
55758;SDS011;41678;52.126;20.664;2024-02-21T05:58:30;27.30;;;10.02;;
55758;SDS011;41678;52.126;20.664;2024-02-21T06:03:51;25.67;;;9.90;;
55758;SDS011;41678;52.126;20.664;2024-02-21T06:09:10;25.83;;;10.05;;
55758;SDS011;41678;52.126;20.664;2024-02-21T06:14:30;24.45;;;8.90;;
55758;SDS011;41678;52.126;20.664;2024-02-21T06:19:49;36.33;;;9.30;;
55758;SDS011;41678;52.126;20.664;2024-02-21T06:25:08;31.52;;;8.02;;
55758;SDS011;41678;52.126;20.664;2024-02-21T06:30:28;24.88;;;9.45;;
55758;SDS011;41678;52.126;20.664;2024-02-21T06:35:48;29.83;;;9.73;;
55758;SDS011;41678;52.126;20.664;2024-02-21T06:41:14;32.55;;;10.23;;
55758;SDS011;41678;52.126;20.664;2024-02-21T06:46:33;26.77;;;10.88;;
55758;SDS011;41678;52.126;20.664;2024-02-21T06:51:53;35.53;;;11.30;;
55758;SDS011;41678;52.126;20.664;2024-02-21T06:57:13;23.42;;;10.65;;
55758;SDS011;41678;52.126;20.664;2024-02-21T07:02:33;42.10;;;11.23;;
55758;SDS011;41678;52.126;20.664;2024-02-21T07:07:53;36.30;;;11.55;;
55758;SDS011;41678;52.126;20.664;2024-02-21T07:13:12;37.63;;;11.18;;
55758;SDS011;41678;52.126;20.664;2024-02-21T07:18:32;36.08;;;11.80;;
55758;SDS011;41678;52.126;20.664;2024-02-21T07:23:52;36.28;;;10.95;;
55758;SDS011;41678;52.126;20.664;2024-02-21T07:29:11;27.05;;;9.77;;
55758;SDS011;41678;52.126;20.664;2024-02-21T07:34:31;29.50;;;12.05;;
55758;SDS011;41678;52.126;20.664;2024-02-21T07:39:50;35.90;;;11.38;;
55758;SDS011;41678;52.126;20.664;2024-02-21T07:45:10;34.33;;;13.40;;
55758;SDS011;41678;52.126;20.664;2024-02-21T07:50:30;48.28;;;14.68;;
55758;SDS011;41678;52.126;20.664;2024-02-21T07:55:49;49.70;;;12.63;;
55758;SDS011;41678;52.126;20.664;2024-02-21T08:01:09;31.13;;;12.07;;
55758;SDS011;41678;52.126;20.664;2024-02-21T08:06:29;31.13;;;11.63;;
55758;SDS011;41678;52.126;20.664;2024-02-21T08:11:49;31.33;;;11.15;;
55758;SDS011;41678;52.126;20.664;2024-02-21T08:17:08;19.25;;;7.40;;
55758;SDS011;41678;52.126;20.664;2024-02-21T08:22:28;38.38;;;11.20;;
55758;SDS011;41678;52.126;20.664;2024-02-21T08:27:48;45.30;;;11.02;;
55758;SDS011;41678;52.126;20.664;2024-02-21T08:33:07;33.53;;;10.07;;
55758;SDS011;41678;52.126;20.664;2024-02-21T08:38:29;28.08;;;11.30;;
55758;SDS011;41678;52.126;20.664;2024-02-21T08:43:53;41.88;;;12.70;;
55758;SDS011;41678;52.126;20.664;2024-02-21T08:49:16;30.58;;;11.48;;
55758;SDS011;41678;52.126;20.664;2024-02-21T08:54:35;33.30;;;10.57;;
55758;SDS011;41678;52.126;20.664;2024-02-21T08:59:54;24.70;;;10.35;;
55758;SDS011;41678;52.126;20.664;2024-02-21T09:05:14;42.67;;;11.80;;
55758;SDS011;41678;52.126;20.664;2024-02-21T09:10:34;23.00;;;8.05;;
55758;SDS011;41678;52.126;20.664;2024-02-21T09:15:53;28.33;;;9.63;;
55758;SDS011;41678;52.126;20.664;2024-02-21T09:21:13;33.00;;;8.70;;
55758;SDS011;41678;52.126;20.664;2024-02-21T09:26:32;27.13;;;9.05;;
55758;SDS011;41678;52.126;20.664;2024-02-21T09:31:52;23.50;;;7.43;;
55758;SDS011;41678;52.126;20.664;2024-02-21T09:37:11;34.17;;;8.90;;
55758;SDS011;41678;52.126;20.664;2024-02-21T09:42:38;17.88;;;7.35;;
55758;SDS011;41678;52.126;20.664;2024-02-21T09:53:17;21.02;;;7.50;;
55758;SDS011;41678;52.126;20.664;2024-02-21T09:58:37;28.60;;;8.23;;
55758;SDS011;41678;52.126;20.664;2024-02-21T10:03:57;34.15;;;9.05;;
55758;SDS011;41678;52.126;20.664;2024-02-21T10:09:23;28.75;;;9.07;;
55758;SDS011;41678;52.126;20.664;2024-02-21T10:14:43;23.92;;;8.43;;
55758;SDS011;41678;52.126;20.664;2024-02-21T10:20:12;36.80;;;9.52;;
55758;SDS011;41678;52.126;20.664;2024-02-21T10:25:36;24.10;;;9.45;;
55758;SDS011;41678;52.126;20.664;2024-02-21T10:31:04;23.20;;;8.82;;
55758;SDS011;41678;52.126;20.664;2024-02-21T10:36:23;30.02;;;9.75;;
55758;SDS011;41678;52.126;20.664;2024-02-21T10:41:46;35.22;;;9.15;;
55758;SDS011;41678;52.126;20.664;2024-02-21T10:47:09;28.55;;;9.63;;
55758;SDS011;41678;52.126;20.664;2024-02-21T10:52:32;25.60;;;9.23;;
55758;SDS011;41678;52.126;20.664;2024-02-21T10:57:57;36.55;;;10.98;;
55758;SDS011;41678;52.126;20.664;2024-02-21T11:03:16;32.67;;;10.55;;
55758;SDS011;41678;52.126;20.664;2024-02-21T11:08:39;28.88;;;10.85;;
55758;SDS011;41678;52.126;20.664;2024-02-21T11:14:20;31.38;;;11.65;;
55758;SDS011;41678;52.126;20.664;2024-02-21T11:19:39;29.33;;;9.30;;
55758;SDS011;41678;52.126;20.664;2024-02-21T11:25:08;34.38;;;11.57;;
55758;SDS011;41678;52.126;20.664;2024-02-21T11:30:31;31.08;;;10.48;;
55758;SDS011;41678;52.126;20.664;2024-02-21T11:35:51;33.88;;;10.32;;
55758;SDS011;41678;52.126;20.664;2024-02-21T11:41:12;31.85;;;11.18;;
55758;SDS011;41678;52.126;20.664;2024-02-21T11:46:31;26.75;;;9.77;;
55758;SDS011;41678;52.126;20.664;2024-02-21T11:51:57;37.55;;;11.40;;
55758;SDS011;41678;52.126;20.664;2024-02-21T11:57:18;14.23;;;7.95;;
55758;SDS011;41678;52.126;20.664;2024-02-21T12:02:38;35.15;;;9.95;;
55758;SDS011;41678;52.126;20.664;2024-02-21T12:07:58;30.38;;;9.35;;
55758;SDS011;41678;52.126;20.664;2024-02-21T12:13:18;26.90;;;8.55;;
55758;SDS011;41678;52.126;20.664;2024-02-21T12:18:42;22.30;;;9.20;;
55758;SDS011;41678;52.126;20.664;2024-02-21T12:24:10;37.65;;;11.75;;
55758;SDS011;41678;52.126;20.664;2024-02-21T12:29:30;17.35;;;7.45;;
55758;SDS011;41678;52.126;20.664;2024-02-21T12:34:50;27.05;;;9.80;;
55758;SDS011;41678;52.126;20.664;2024-02-21T12:40:09;27.15;;;9.73;;
55758;SDS011;41678;52.126;20.664;2024-02-21T12:45:32;22.70;;;8.93;;
55758;SDS011;41678;52.126;20.664;2024-02-21T12:50:53;25.67;;;8.80;;
55758;SDS011;41678;52.126;20.664;2024-02-21T12:56:13;22.40;;;7.63;;
55758;SDS011;41678;52.126;20.664;2024-02-21T13:01:33;23.75;;;10.05;;
55758;SDS011;41678;52.126;20.664;2024-02-21T13:06:52;23.15;;;8.13;;
55758;SDS011;41678;52.126;20.664;2024-02-21T13:12:11;28.50;;;8.90;;
55758;SDS011;41678;52.126;20.664;2024-02-21T13:17:31;21.42;;;8.70;;
55758;SDS011;41678;52.126;20.664;2024-02-21T13:22:51;30.50;;;9.82;;
55758;SDS011;41678;52.126;20.664;2024-02-21T13:28:10;25.63;;;8.98;;
55758;SDS011;41678;52.126;20.664;2024-02-21T13:33:29;22.30;;;7.65;;
55758;SDS011;41678;52.126;20.664;2024-02-21T13:38:49;27.15;;;9.15;;
55758;SDS011;41678;52.126;20.664;2024-02-21T13:44:10;30.30;;;11.40;;
55758;SDS011;41678;52.126;20.664;2024-02-21T13:49:31;21.58;;;7.93;;
55758;SDS011;41678;52.126;20.664;2024-02-21T13:54:50;24.65;;;8.75;;
55758;SDS011;41678;52.126;20.664;2024-02-21T14:00:10;30.13;;;10.05;;
55758;SDS011;41678;52.126;20.664;2024-02-21T14:05:33;20.02;;;7.70;;
55758;SDS011;41678;52.126;20.664;2024-02-21T14:10:52;18.60;;;6.88;;
55758;SDS011;41678;52.126;20.664;2024-02-21T14:16:12;24.38;;;7.40;;
55758;SDS011;41678;52.126;20.664;2024-02-21T14:21:34;21.70;;;8.10;;
55758;SDS011;41678;52.126;20.664;2024-02-21T14:26:57;27.90;;;9.52;;
55758;SDS011;41678;52.126;20.664;2024-02-21T14:32:17;28.25;;;8.50;;
55758;SDS011;41678;52.126;20.664;2024-02-21T14:37:36;24.75;;;6.50;;
55758;SDS011;41678;52.126;20.664;2024-02-21T14:42:56;22.42;;;6.80;;
55758;SDS011;41678;52.126;20.664;2024-02-21T14:48:15;10.50;;;4.97;;
55758;SDS011;41678;52.126;20.664;2024-02-21T14:53:35;21.45;;;5.50;;
55758;SDS011;41678;52.126;20.664;2024-02-21T14:58:54;17.77;;;5.40;;
55758;SDS011;41678;52.126;20.664;2024-02-21T15:04:13;14.15;;;6.38;;
55758;SDS011;41678;52.126;20.664;2024-02-21T15:09:33;22.17;;;6.70;;
55758;SDS011;41678;52.126;20.664;2024-02-21T15:14:52;19.17;;;6.07;;
55758;SDS011;41678;52.126;20.664;2024-02-21T15:20:11;30.17;;;7.32;;
55758;SDS011;41678;52.126;20.664;2024-02-21T15:25:31;22.73;;;6.97;;
55758;SDS011;41678;52.126;20.664;2024-02-21T15:30:51;16.67;;;6.57;;
55758;SDS011;41678;52.126;20.664;2024-02-21T15:36:11;15.05;;;6.40;;
55758;SDS011;41678;52.126;20.664;2024-02-21T15:41:30;19.52;;;6.55;;
55758;SDS011;41678;52.126;20.664;2024-02-21T15:46:49;23.55;;;6.20;;
55758;SDS011;41678;52.126;20.664;2024-02-21T15:52:11;18.75;;;6.28;;
55758;SDS011;41678;52.126;20.664;2024-02-21T15:57:31;17.85;;;7.78;;
55758;SDS011;41678;52.126;20.664;2024-02-21T16:02:51;21.35;;;6.70;;
55758;SDS011;41678;52.126;20.664;2024-02-21T16:08:14;21.70;;;6.53;;
55758;SDS011;41678;52.126;20.664;2024-02-21T16:13:37;19.73;;;6.10;;
55758;SDS011;41678;52.126;20.664;2024-02-21T16:18:57;26.67;;;9.52;;
55758;SDS011;41678;52.126;20.664;2024-02-21T16:24:16;33.92;;;11.23;;
55758;SDS011;41678;52.126;20.664;2024-02-21T16:29:36;22.85;;;6.32;;
55758;SDS011;41678;52.126;20.664;2024-02-21T16:34:55;22.70;;;9.45;;
55758;SDS011;41678;52.126;20.664;2024-02-21T16:40:15;20.23;;;8.18;;
55758;SDS011;41678;52.126;20.664;2024-02-21T16:45:38;15.48;;;6.38;;
55758;SDS011;41678;52.126;20.664;2024-02-21T16:50:57;11.65;;;5.78;;
55758;SDS011;41678;52.126;20.664;2024-02-21T16:56:17;23.85;;;7.18;;
55758;SDS011;41678;52.126;20.664;2024-02-21T17:01:38;20.58;;;6.47;;
55758;SDS011;41678;52.126;20.664;2024-02-21T17:07:00;14.38;;;5.75;;
55758;SDS011;41678;52.126;20.664;2024-02-21T17:12:20;14.55;;;4.68;;
55758;SDS011;41678;52.126;20.664;2024-02-21T17:17:40;19.15;;;5.75;;
55758;SDS011;41678;52.126;20.664;2024-02-21T17:22:59;16.05;;;6.03;;
55758;SDS011;41678;52.126;20.664;2024-02-21T17:28:19;13.73;;;5.65;;
55758;SDS011;41678;52.126;20.664;2024-02-21T17:33:38;19.27;;;6.38;;
55758;SDS011;41678;52.126;20.664;2024-02-21T17:38:58;17.75;;;6.70;;
55758;SDS011;41678;52.126;20.664;2024-02-21T17:44:17;13.00;;;6.30;;
55758;SDS011;41678;52.126;20.664;2024-02-21T17:49:37;18.95;;;6.13;;
55758;SDS011;41678;52.126;20.664;2024-02-21T17:54:57;15.98;;;6.72;;
55758;SDS011;41678;52.126;20.664;2024-02-21T18:00:17;20.42;;;7.72;;
55758;SDS011;41678;52.126;20.664;2024-02-21T18:05:37;20.50;;;7.38;;
55758;SDS011;41678;52.126;20.664;2024-02-21T18:10:56;21.98;;;7.13;;
55758;SDS011;41678;52.126;20.664;2024-02-21T18:16:16;18.88;;;8.88;;
55758;SDS011;41678;52.126;20.664;2024-02-21T18:21:35;22.73;;;8.45;;
55758;SDS011;41678;52.126;20.664;2024-02-21T18:26:55;18.40;;;6.90;;
55758;SDS011;41678;52.126;20.664;2024-02-21T18:32:15;18.98;;;7.90;;
55758;SDS011;41678;52.126;20.664;2024-02-21T18:37:34;31.23;;;9.13;;
55758;SDS011;41678;52.126;20.664;2024-02-21T18:42:54;21.33;;;8.48;;
55758;SDS011;41678;52.126;20.664;2024-02-21T18:48:17;16.70;;;8.65;;
55758;SDS011;41678;52.126;20.664;2024-02-21T18:53:36;20.50;;;8.38;;
55758;SDS011;41678;52.126;20.664;2024-02-21T18:58:56;27.90;;;10.23;;
55758;SDS011;41678;52.126;20.664;2024-02-21T19:04:16;25.42;;;9.55;;
55758;SDS011;41678;52.126;20.664;2024-02-21T19:09:35;19.55;;;9.05;;
55758;SDS011;41678;52.126;20.664;2024-02-21T19:14:55;30.77;;;10.48;;
55758;SDS011;41678;52.126;20.664;2024-02-21T19:20:14;25.65;;;10.25;;
55758;SDS011;41678;52.126;20.664;2024-02-21T19:25:34;23.20;;;9.63;;
55758;SDS011;41678;52.126;20.664;2024-02-21T19:30:54;26.70;;;10.25;;
55758;SDS011;41678;52.126;20.664;2024-02-21T19:36:14;22.30;;;9.88;;
55758;SDS011;41678;52.126;20.664;2024-02-21T19:41:33;28.20;;;8.43;;
55758;SDS011;41678;52.126;20.664;2024-02-21T19:46:52;24.58;;;9.52;;
55758;SDS011;41678;52.126;20.664;2024-02-21T19:52:12;30.15;;;9.55;;
55758;SDS011;41678;52.126;20.664;2024-02-21T19:57:31;23.98;;;10.15;;
55758;SDS011;41678;52.126;20.664;2024-02-21T20:02:51;28.25;;;9.25;;
55758;SDS011;41678;52.126;20.664;2024-02-21T20:08:11;25.55;;;8.88;;
55758;SDS011;41678;52.126;20.664;2024-02-21T20:13:31;23.40;;;9.27;;
55758;SDS011;41678;52.126;20.664;2024-02-21T20:24:42;20.55;;;10.25;;
55758;SDS011;41678;52.126;20.664;2024-02-21T20:30:01;24.40;;;9.65;;
55758;SDS011;41678;52.126;20.664;2024-02-21T20:35:22;24.83;;;10.43;;
55758;SDS011;41678;52.126;20.664;2024-02-21T20:40:41;24.25;;;8.80;;
55758;SDS011;41678;52.126;20.664;2024-02-21T20:46:01;25.80;;;9.73;;
55758;SDS011;41678;52.126;20.664;2024-02-21T20:51:21;17.60;;;7.85;;
55758;SDS011;41678;52.126;20.664;2024-02-21T20:56:40;24.70;;;7.60;;
55758;SDS011;41678;52.126;20.664;2024-02-21T21:01:59;33.88;;;9.02;;
55758;SDS011;41678;52.126;20.664;2024-02-21T21:07:19;23.10;;;7.30;;
55758;SDS011;41678;52.126;20.664;2024-02-21T21:12:39;18.30;;;7.93;;
55758;SDS011;41678;52.126;20.664;2024-02-21T21:17:59;21.90;;;9.02;;
55758;SDS011;41678;52.126;20.664;2024-02-21T21:23:19;22.67;;;8.30;;
55758;SDS011;41678;52.126;20.664;2024-02-21T21:28:39;20.77;;;8.77;;
55758;SDS011;41678;52.126;20.664;2024-02-21T21:33:58;22.25;;;8.00;;
55758;SDS011;41678;52.126;20.664;2024-02-21T21:39:17;19.10;;;7.68;;
55758;SDS011;41678;52.126;20.664;2024-02-21T21:44:37;29.67;;;10.70;;
55758;SDS011;41678;52.126;20.664;2024-02-21T21:49:56;18.77;;;8.15;;
55758;SDS011;41678;52.126;20.664;2024-02-21T21:55:16;22.48;;;8.57;;
55758;SDS011;41678;52.126;20.664;2024-02-21T22:00:35;34.65;;;12.65;;
55758;SDS011;41678;52.126;20.664;2024-02-21T22:05:55;25.75;;;9.93;;
55758;SDS011;41678;52.126;20.664;2024-02-21T22:11:14;28.33;;;10.70;;
55758;SDS011;41678;52.126;20.664;2024-02-21T22:16:35;27.77;;;10.02;;
55758;SDS011;41678;52.126;20.664;2024-02-21T22:21:54;23.52;;;9.70;;
55758;SDS011;41678;52.126;20.664;2024-02-21T22:27:14;26.67;;;11.18;;
55758;SDS011;41678;52.126;20.664;2024-02-21T22:32:33;22.70;;;9.45;;
55758;SDS011;41678;52.126;20.664;2024-02-21T22:37:53;23.23;;;10.07;;
55758;SDS011;41678;52.126;20.664;2024-02-21T22:43:12;25.00;;;10.10;;
55758;SDS011;41678;52.126;20.664;2024-02-21T22:48:32;25.52;;;10.07;;
55758;SDS011;41678;52.126;20.664;2024-02-21T22:53:51;28.63;;;10.75;;
55758;SDS011;41678;52.126;20.664;2024-02-21T22:59:11;24.13;;;11.25;;
55758;SDS011;41678;52.126;20.664;2024-02-21T23:04:31;28.98;;;10.70;;
55758;SDS011;41678;52.126;20.664;2024-02-21T23:09:50;24.27;;;10.57;;
55758;SDS011;41678;52.126;20.664;2024-02-21T23:15:10;29.27;;;10.65;;
55758;SDS011;41678;52.126;20.664;2024-02-21T23:20:30;23.38;;;9.70;;
55758;SDS011;41678;52.126;20.664;2024-02-21T23:25:49;23.40;;;10.80;;
55758;SDS011;41678;52.126;20.664;2024-02-21T23:31:09;26.40;;;9.07;;
55758;SDS011;41678;52.126;20.664;2024-02-21T23:36:29;27.73;;;9.82;;
55758;SDS011;41678;52.126;20.664;2024-02-21T23:41:49;30.20;;;9.35;;
55758;SDS011;41678;52.126;20.664;2024-02-21T23:47:08;26.73;;;8.95;;
55758;SDS011;41678;52.126;20.664;2024-02-21T23:52:28;31.95;;;10.57;;
55758;SDS011;41678;52.126;20.664;2024-02-21T23:57:47;23.38;;;9.85;;
